createdAt,value
2022-11-23T00:00:06.390Z,17.70
2022-11-23T00:01:06.377Z,16.80
2022-11-23T00:02:06.448Z,17.30
2022-11-23T00:03:06.360Z,17.70
2022-11-23T00:04:06.349Z,17.60
2022-11-23T00:05:06.333Z,17.50
2022-11-23T00:06:06.331Z,17.30
2022-11-23T00:07:06.344Z,16.60
2022-11-23T00:08:06.305Z,18.10
2022-11-23T00:09:06.304Z,17.20
2022-11-23T00:10:06.285Z,17.10
2022-11-23T00:11:06.277Z,16.00
2022-11-23T00:12:06.278Z,17.30
2022-11-23T00:13:06.255Z,17.70
2022-11-23T00:14:06.237Z,17.40
2022-11-23T00:15:06.226Z,16.20
2022-11-23T00:16:06.222Z,15.80
2022-11-23T00:17:06.219Z,16.70
2022-11-23T00:18:06.205Z,16.40
2022-11-23T00:19:06.184Z,16.60
2022-11-23T00:20:06.181Z,16.80
2022-11-23T00:21:06.168Z,15.80
2022-11-23T00:22:06.188Z,16.90
2022-11-23T00:23:06.137Z,15.90
2022-11-23T00:24:06.189Z,16.40
2022-11-23T00:25:06.226Z,16.50
2022-11-23T00:26:06.114Z,17.30
2022-11-23T00:27:06.118Z,16.30
2022-11-23T00:28:06.086Z,16.50
2022-11-23T00:29:06.072Z,16.20
2022-11-23T00:30:06.072Z,17.40
2022-11-23T00:31:06.051Z,16.50
2022-11-23T00:32:06.067Z,18.20
2022-11-23T00:33:06.027Z,17.10
2022-11-23T00:34:06.024Z,17.30
2022-11-23T00:35:06.090Z,16.30
2022-11-23T00:36:05.995Z,17.00
2022-11-23T00:37:05.988Z,17.10
2022-11-23T00:38:05.999Z,17.10
2022-11-23T00:39:05.968Z,17.80
2022-11-23T00:40:05.987Z,16.40
2022-11-23T00:41:05.956Z,15.40
2022-11-23T00:42:05.935Z,16.50
2022-11-23T00:43:05.940Z,15.70
2022-11-23T00:44:05.917Z,17.30
2022-11-23T00:45:05.905Z,15.80
2022-11-23T00:46:05.895Z,16.50
2022-11-23T00:47:05.909Z,16.10
2022-11-23T00:48:05.892Z,16.60
2022-11-23T00:49:05.863Z,16.30
2022-11-23T00:50:05.855Z,16.80
2022-11-23T00:51:05.852Z,15.80
2022-11-23T00:52:05.878Z,15.80
2022-11-23T00:53:05.835Z,16.30
2022-11-23T00:54:05.806Z,16.80
2022-11-23T00:55:05.894Z,15.80
2022-11-23T00:56:05.795Z,16.10
2022-11-23T00:57:05.776Z,16.40
2022-11-23T00:58:05.778Z,16.60
2022-11-23T00:59:05.748Z,16.30
2022-11-23T01:00:05.750Z,16.60
2022-11-23T01:01:05.791Z,16.10
2022-11-23T01:02:05.747Z,16.40
2022-11-23T01:03:05.739Z,16.00
2022-11-23T01:04:05.728Z,16.10
2022-11-23T01:05:05.694Z,16.80
2022-11-23T01:06:05.671Z,17.00
2022-11-23T01:07:05.763Z,15.80
2022-11-23T01:08:05.672Z,15.50
2022-11-23T01:09:05.646Z,15.70
2022-11-23T01:10:05.627Z,15.70
2022-11-23T01:11:05.619Z,16.10
2022-11-23T01:12:05.622Z,15.90
2022-11-23T01:13:05.621Z,15.30
2022-11-23T01:14:05.589Z,14.70
2022-11-23T01:15:05.582Z,16.00
2022-11-23T01:16:05.570Z,15.10
2022-11-23T01:17:05.561Z,14.60
2022-11-23T01:18:05.569Z,15.60
2022-11-23T01:19:05.547Z,14.80
2022-11-23T01:20:05.534Z,14.60
2022-11-23T01:21:05.508Z,14.60
2022-11-23T01:22:05.497Z,15.30
2022-11-23T01:23:05.519Z,14.50
2022-11-23T01:24:05.473Z,14.20
2022-11-23T01:25:05.473Z,14.00
2022-11-23T01:26:05.459Z,14.90
2022-11-23T01:27:05.457Z,14.50
2022-11-23T01:28:05.451Z,16.10
2022-11-23T01:29:05.439Z,14.80
2022-11-23T01:30:05.423Z,14.40
2022-11-23T01:31:05.400Z,14.70
2022-11-23T01:32:05.412Z,14.50
2022-11-23T01:33:05.408Z,15.10
2022-11-23T01:34:05.429Z,14.20
2022-11-23T01:35:05.391Z,15.00
2022-11-23T01:36:05.363Z,15.20
2022-11-23T01:37:05.353Z,15.50
2022-11-23T01:38:05.363Z,14.90
2022-11-23T01:39:05.324Z,14.50
2022-11-23T01:40:05.310Z,13.90
2022-11-23T01:41:05.307Z,14.40
2022-11-23T01:42:05.289Z,13.60
2022-11-23T01:43:05.311Z,15.00
2022-11-23T01:44:05.259Z,14.60
2022-11-23T01:45:05.256Z,14.20
2022-11-23T01:46:05.240Z,14.90
2022-11-23T01:47:05.237Z,15.30
2022-11-23T01:48:05.246Z,15.00
2022-11-23T01:49:05.214Z,14.70
2022-11-23T01:50:05.213Z,14.40
2022-11-23T01:51:05.190Z,14.50
2022-11-23T01:52:05.176Z,14.60
2022-11-23T01:53:05.178Z,14.00
2022-11-23T01:54:05.156Z,13.80
2022-11-23T01:55:08.444Z,13.10
2022-11-23T01:56:05.139Z,13.80
2022-11-23T01:57:05.124Z,14.50
2022-11-23T01:58:05.127Z,13.80
2022-11-23T01:59:05.103Z,13.60
2022-11-23T02:00:05.092Z,13.90
2022-11-23T02:01:05.111Z,13.60
2022-11-23T02:02:05.071Z,14.90
2022-11-23T02:03:05.079Z,14.50
2022-11-23T02:04:05.038Z,14.70
2022-11-23T02:05:05.032Z,13.60
2022-11-23T02:06:05.017Z,13.60
2022-11-23T02:07:05.139Z,14.60
2022-11-23T02:08:05.022Z,14.00
2022-11-23T02:09:04.994Z,14.70
2022-11-23T02:10:04.985Z,14.80
2022-11-23T02:11:04.971Z,14.00
2022-11-23T02:12:04.969Z,14.80
2022-11-23T02:13:05.033Z,14.10
2022-11-23T02:14:04.942Z,14.50
2022-11-23T02:15:04.945Z,13.60
2022-11-23T02:16:04.922Z,14.70
2022-11-23T02:17:04.923Z,13.90
2022-11-23T02:18:04.917Z,15.10
2022-11-23T02:19:04.900Z,14.70
2022-11-23T02:20:04.943Z,13.60
2022-11-23T02:21:04.859Z,14.10
2022-11-23T02:22:04.873Z,13.80
2022-11-23T02:23:04.870Z,14.90
2022-11-23T02:24:04.876Z,14.40
2022-11-23T02:25:04.818Z,13.50
2022-11-23T02:26:04.822Z,13.60
2022-11-23T02:27:04.819Z,14.00
2022-11-23T02:28:04.917Z,13.40
2022-11-23T02:29:04.808Z,13.70
2022-11-23T02:30:04.785Z,14.10
2022-11-23T02:31:04.752Z,13.60
2022-11-23T02:32:04.737Z,14.00
2022-11-23T02:33:04.747Z,14.10
2022-11-23T02:34:04.717Z,13.80
2022-11-23T02:35:04.706Z,14.00
2022-11-23T02:36:04.711Z,13.60
2022-11-23T02:37:05.493Z,13.60
2022-11-23T02:38:04.693Z,13.70
2022-11-23T02:39:04.672Z,13.80
2022-11-23T02:40:04.655Z,13.80
2022-11-23T02:41:04.644Z,13.60
2022-11-23T02:42:08.449Z,13.90
2022-11-23T02:43:04.637Z,14.30
2022-11-23T02:44:04.611Z,14.50
2022-11-23T02:45:04.622Z,14.60
2022-11-23T02:46:04.595Z,13.70
2022-11-23T02:47:04.624Z,14.20
2022-11-23T02:48:04.590Z,14.00
2022-11-23T02:49:04.569Z,13.20
2022-11-23T02:50:04.546Z,14.80
2022-11-23T02:51:04.559Z,14.10
2022-11-23T02:52:04.535Z,14.20
2022-11-23T02:53:04.538Z,13.70
2022-11-23T02:54:04.506Z,13.60
2022-11-23T02:55:04.516Z,13.50
2022-11-23T02:56:04.477Z,13.90
2022-11-23T02:57:04.474Z,14.00
2022-11-23T02:58:04.480Z,13.00
2022-11-23T02:59:04.450Z,14.00
2022-11-23T03:00:04.442Z,13.00
2022-11-23T03:01:04.501Z,13.10
2022-11-23T03:02:04.425Z,12.60
2022-11-23T03:03:04.426Z,13.70
2022-11-23T03:04:04.399Z,13.50
2022-11-23T03:05:04.387Z,14.10
2022-11-23T03:06:04.377Z,13.00
2022-11-23T03:07:04.423Z,12.90
2022-11-23T03:08:04.374Z,13.00
2022-11-23T03:09:04.341Z,13.30
2022-11-23T03:10:04.335Z,12.60
2022-11-23T03:11:04.323Z,13.30
2022-11-23T03:12:04.319Z,12.70
2022-11-23T03:13:04.324Z,13.40
2022-11-23T03:14:04.297Z,12.90
2022-11-23T03:15:04.275Z,12.60
2022-11-23T03:16:04.269Z,12.10
2022-11-23T03:17:04.253Z,13.10
2022-11-23T03:18:04.256Z,12.50
2022-11-23T03:19:04.259Z,13.60
2022-11-23T03:20:04.224Z,11.40
2022-11-23T03:21:04.219Z,11.70
2022-11-23T03:22:04.208Z,12.40
2022-11-23T03:23:04.224Z,12.60
2022-11-23T03:24:04.183Z,13.80
2022-11-23T03:25:04.175Z,13.00
2022-11-23T03:26:08.444Z,12.60
2022-11-23T03:27:04.153Z,12.10
2022-11-23T03:28:04.138Z,12.60
2022-11-23T03:29:04.148Z,11.80
2022-11-23T03:30:04.116Z,12.10
2022-11-23T03:31:04.105Z,11.90
2022-11-23T03:32:04.094Z,13.30
2022-11-23T03:33:04.089Z,12.40
2022-11-23T03:34:04.085Z,13.00
2022-11-23T03:35:04.058Z,12.10
2022-11-23T03:36:04.062Z,11.90
2022-11-23T03:37:04.042Z,12.50
2022-11-23T03:38:04.028Z,12.00
2022-11-23T03:39:04.040Z,12.10
2022-11-23T03:40:04.001Z,12.10
2022-11-23T03:41:03.997Z,13.00
2022-11-23T03:42:03.983Z,11.40
2022-11-23T03:43:03.971Z,12.50
2022-11-23T03:44:03.975Z,12.90
2022-11-23T03:45:03.960Z,11.50
2022-11-23T03:46:03.945Z,11.10
2022-11-23T03:47:03.939Z,11.50
2022-11-23T03:48:03.935Z,11.70
2022-11-23T03:49:03.933Z,12.40
2022-11-23T03:50:03.899Z,10.90
2022-11-23T03:51:03.892Z,11.80
2022-11-23T03:52:03.875Z,12.00
2022-11-23T03:53:03.854Z,11.80
2022-11-23T03:54:03.875Z,10.70
2022-11-23T03:55:03.840Z,10.80
2022-11-23T03:56:03.855Z,12.10
2022-11-23T03:57:03.829Z,10.90
2022-11-23T03:58:03.817Z,11.80
2022-11-23T03:59:03.822Z,12.10
2022-11-23T04:00:03.796Z,11.60
2022-11-23T04:01:03.853Z,11.70
2022-11-23T04:02:03.782Z,11.90
2022-11-23T04:03:03.761Z,11.40
2022-11-23T04:04:03.773Z,11.10
2022-11-23T04:05:03.734Z,11.30
2022-11-23T04:06:03.724Z,11.50
2022-11-23T04:07:03.891Z,10.80
2022-11-23T04:08:03.719Z,10.50
2022-11-23T04:09:03.711Z,10.00
2022-11-23T04:10:03.675Z,10.40
2022-11-23T04:11:03.682Z,10.40
2022-11-23T04:12:03.666Z,10.20
2022-11-23T04:13:03.650Z,10.20
2022-11-23T04:14:03.657Z,10.60
2022-11-23T04:15:03.622Z,10.10
2022-11-23T04:16:03.622Z,9.80
2022-11-23T04:17:03.620Z,10.50
2022-11-23T04:18:03.591Z,9.90
2022-11-23T04:19:03.598Z,10.30
2022-11-23T04:20:03.593Z,10.10
2022-11-23T04:21:03.564Z,10.30
2022-11-23T04:22:03.547Z,10.50
2022-11-23T04:23:03.533Z,10.20
2022-11-23T04:24:11.531Z,9.90
2022-11-23T04:25:03.531Z,9.40
2022-11-23T04:26:03.507Z,9.70
2022-11-23T04:27:03.502Z,10.30
2022-11-23T04:28:03.479Z,9.10
2022-11-23T04:29:03.487Z,10.20
2022-11-23T04:30:03.465Z,9.60
2022-11-23T04:31:03.445Z,10.10
2022-11-23T04:32:03.450Z,9.70
2022-11-23T04:33:03.425Z,10.00
2022-11-23T04:34:03.438Z,10.10
2022-11-23T04:35:03.414Z,9.30
2022-11-23T04:36:03.399Z,9.50
2022-11-23T04:37:03.394Z,9.30
2022-11-23T04:38:03.381Z,10.20
2022-11-23T04:39:03.377Z,9.50
2022-11-23T04:40:03.352Z,9.20
2022-11-23T04:41:03.353Z,9.70
2022-11-23T04:42:03.335Z,10.10
2022-11-23T04:43:03.317Z,9.40
2022-11-23T04:44:03.322Z,9.70
2022-11-23T04:45:03.294Z,10.00
2022-11-23T04:46:03.295Z,9.90
2022-11-23T04:47:03.279Z,9.50
2022-11-23T04:48:03.267Z,9.50
2022-11-23T04:49:03.261Z,9.20
2022-11-23T04:50:03.259Z,9.30
2022-11-23T04:51:03.239Z,8.90
2022-11-23T04:52:03.227Z,8.80
2022-11-23T04:53:03.213Z,9.20
2022-11-23T04:54:03.201Z,8.70
2022-11-23T04:55:03.220Z,8.70
2022-11-23T04:56:03.179Z,8.90
2022-11-23T04:57:03.168Z,7.90
2022-11-23T04:58:03.165Z,8.10
2022-11-23T04:59:03.712Z,8.40
2022-11-23T05:00:03.156Z,8.00
2022-11-23T05:01:03.202Z,8.30
2022-11-23T05:02:03.127Z,7.50
2022-11-23T05:03:03.103Z,7.70
2022-11-23T05:04:03.092Z,7.90
2022-11-23T05:05:03.097Z,8.50
2022-11-23T05:06:03.076Z,7.80
2022-11-23T05:07:03.061Z,8.20
2022-11-23T05:08:03.046Z,7.80
2022-11-23T05:09:03.044Z,8.40
2022-11-23T05:10:03.046Z,7.50
2022-11-23T05:11:03.021Z,8.10
2022-11-23T05:12:03.007Z,8.20
2022-11-23T05:13:03.009Z,7.00
2022-11-23T05:14:02.985Z,7.20
2022-11-23T05:15:02.988Z,8.00
2022-11-23T05:16:02.957Z,8.00
2022-11-23T05:17:02.953Z,8.10
2022-11-23T05:18:02.943Z,7.70
2022-11-23T05:19:02.937Z,7.90
2022-11-23T05:20:02.932Z,7.90
2022-11-23T05:21:02.919Z,7.80
2022-11-23T05:22:02.899Z,7.20
2022-11-23T05:23:02.884Z,7.20
2022-11-23T05:24:02.875Z,7.10
2022-11-23T05:25:02.896Z,6.70
2022-11-23T05:26:02.853Z,6.60
2022-11-23T05:27:02.841Z,7.30
2022-11-23T05:28:16.561Z,6.80
2022-11-23T05:29:02.827Z,6.40
2022-11-23T05:30:02.825Z,6.70
2022-11-23T05:31:02.795Z,6.70
2022-11-23T05:32:02.788Z,6.30
2022-11-23T05:33:02.781Z,6.40
2022-11-23T05:34:02.767Z,6.40
2022-11-23T05:35:02.769Z,6.40
2022-11-23T05:36:02.752Z,6.00
2022-11-23T05:37:02.738Z,6.80
2022-11-23T05:38:02.720Z,6.40
2022-11-23T05:39:02.708Z,6.60
2022-11-23T05:40:02.723Z,5.60
2022-11-23T05:41:02.690Z,6.10
2022-11-23T05:42:02.693Z,5.90
2022-11-23T05:43:02.669Z,5.60
2022-11-23T05:44:02.656Z,5.90
2022-11-23T05:45:04.525Z,6.40
2022-11-23T05:46:02.632Z,5.90
2022-11-23T05:47:02.624Z,5.70
2022-11-23T05:48:02.611Z,6.00
2022-11-23T05:49:02.613Z,6.30
2022-11-23T05:50:02.610Z,5.30
2022-11-23T05:51:05.358Z,5.60
2022-11-23T05:52:02.582Z,5.50
2022-11-23T05:53:02.565Z,5.90
2022-11-23T05:54:02.574Z,6.00
2022-11-23T05:55:02.575Z,5.80
2022-11-23T05:56:02.543Z,5.60
2022-11-23T05:57:02.539Z,5.30
2022-11-23T05:58:02.530Z,5.50
2022-11-23T05:59:02.554Z,5.70
2022-11-23T06:00:02.509Z,5.20
2022-11-23T06:01:02.500Z,6.00
2022-11-23T06:02:02.467Z,5.60
2022-11-23T06:03:02.466Z,5.00
2022-11-23T06:04:02.528Z,5.10
2022-11-23T06:05:02.456Z,4.80
2022-11-23T06:06:02.419Z,5.30
2022-11-23T06:07:02.428Z,5.30
2022-11-23T06:08:02.391Z,5.00
2022-11-23T06:09:02.412Z,5.00
2022-11-23T06:10:02.419Z,5.10
2022-11-23T06:11:02.380Z,5.30
2022-11-23T06:12:02.358Z,4.60
2022-11-23T06:13:02.346Z,5.00
2022-11-23T06:14:02.349Z,4.70
2022-11-23T06:15:02.354Z,4.80
2022-11-23T06:16:02.311Z,4.80
2022-11-23T06:17:02.310Z,5.00
2022-11-23T06:18:02.292Z,4.60
2022-11-23T06:19:02.281Z,5.10
2022-11-23T06:20:02.294Z,4.90
2022-11-23T06:21:02.263Z,5.10
2022-11-23T06:22:02.267Z,5.00
2022-11-23T06:23:02.231Z,4.60
2022-11-23T06:24:02.233Z,4.10
2022-11-23T06:25:02.221Z,4.80
2022-11-23T06:26:02.226Z,4.70
2022-11-23T06:27:02.200Z,4.90
2022-11-23T06:28:02.187Z,4.60
2022-11-23T06:29:02.185Z,5.00
2022-11-23T06:30:02.166Z,4.30
2022-11-23T06:31:02.172Z,4.60
2022-11-23T06:32:02.138Z,4.30
2022-11-23T06:33:02.133Z,4.60
2022-11-23T06:34:02.115Z,4.90
2022-11-23T06:35:02.107Z,4.50
2022-11-23T06:36:02.129Z,3.90
2022-11-23T06:37:02.088Z,4.60
2022-11-23T06:38:02.078Z,5.20
2022-11-23T06:39:02.066Z,4.40
2022-11-23T06:40:02.270Z,4.70
2022-11-23T06:41:02.185Z,4.80
2022-11-23T06:42:23.444Z,4.80
2022-11-23T06:43:02.033Z,4.50
2022-11-23T06:44:02.037Z,4.70
2022-11-23T06:45:02.005Z,4.60
2022-11-23T06:46:02.055Z,4.40
2022-11-23T06:47:01.984Z,4.40
2022-11-23T06:48:01.975Z,4.30
2022-11-23T06:49:01.960Z,4.50
2022-11-23T06:50:01.948Z,4.90
2022-11-23T06:51:01.958Z,5.10
2022-11-23T06:52:01.936Z,4.80
2022-11-23T06:53:01.917Z,4.70
2022-11-23T06:54:01.913Z,4.80
2022-11-23T06:55:01.904Z,4.90
2022-11-23T06:56:01.904Z,5.20
2022-11-23T06:57:01.879Z,4.70
2022-11-23T06:58:01.855Z,4.90
2022-11-23T06:59:01.864Z,4.60
2022-11-23T07:00:01.872Z,4.20
2022-11-23T07:01:01.959Z,4.40
2022-11-23T07:02:01.812Z,4.70
2022-11-23T07:03:01.800Z,4.60
2022-11-23T07:04:01.877Z,4.30
2022-11-23T07:05:01.780Z,4.20
2022-11-23T07:06:01.788Z,3.90
2022-11-23T07:07:01.764Z,4.60
2022-11-23T07:08:01.755Z,4.30
2022-11-23T07:09:01.733Z,4.50
2022-11-23T07:10:06.825Z,4.70
2022-11-23T07:11:01.761Z,5.10
2022-11-23T07:12:01.722Z,4.70
2022-11-23T07:13:01.726Z,5.00
2022-11-23T07:14:01.690Z,5.10
2022-11-23T07:15:01.678Z,4.70
2022-11-23T07:16:01.695Z,4.70
2022-11-23T07:17:01.650Z,4.60
2022-11-23T07:18:01.651Z,4.60
2022-11-23T07:19:01.662Z,4.40
2022-11-23T07:20:01.620Z,4.10
2022-11-23T07:21:01.625Z,4.70
2022-11-23T07:22:01.606Z,4.70
2022-11-23T07:23:01.582Z,4.30
2022-11-23T07:24:01.585Z,4.60
2022-11-23T07:25:01.562Z,4.30
2022-11-23T07:26:01.569Z,4.70
2022-11-23T07:27:01.547Z,4.70
2022-11-23T07:28:01.542Z,4.30
2022-11-23T07:29:01.527Z,4.50
2022-11-23T07:30:01.504Z,4.40
2022-11-23T07:31:01.516Z,4.60
2022-11-23T07:32:01.489Z,4.80
2022-11-23T07:33:01.474Z,4.20
2022-11-23T07:34:01.470Z,4.50
2022-11-23T07:35:01.460Z,4.20
2022-11-23T07:36:01.458Z,4.60
2022-11-23T07:37:02.287Z,4.30
2022-11-23T07:38:01.423Z,3.90
2022-11-23T07:39:01.410Z,4.10
2022-11-23T07:40:01.796Z,4.70
2022-11-23T07:41:01.406Z,4.10
2022-11-23T07:43:01.387Z,4.00
2022-11-23T07:44:01.356Z,3.70
2022-11-23T07:45:01.344Z,3.80
2022-11-23T07:46:01.356Z,4.10
2022-11-23T07:47:01.324Z,4.00
2022-11-23T07:48:01.324Z,4.10
2022-11-23T07:49:01.315Z,3.80
2022-11-23T07:50:01.287Z,3.90
2022-11-23T07:51:01.303Z,3.80
2022-11-23T07:52:01.279Z,4.10
2022-11-23T07:53:01.257Z,4.40
2022-11-23T07:54:01.271Z,4.20
2022-11-23T07:55:01.233Z,3.90
2022-11-23T07:56:01.258Z,3.80
2022-11-23T07:57:01.213Z,4.40
2022-11-23T07:58:01.224Z,4.00
2022-11-23T07:59:01.199Z,4.00
2022-11-23T08:00:01.179Z,4.70
2022-11-23T08:01:01.195Z,4.30
2022-11-23T08:02:01.214Z,4.00
2022-11-23T08:04:01.162Z,4.40
2022-11-23T08:05:01.144Z,3.80
2022-11-23T08:06:01.145Z,4.80
2022-11-23T08:07:01.100Z,3.80
2022-11-23T08:08:01.099Z,4.20
2022-11-23T08:09:01.211Z,4.20
2022-11-23T08:10:01.168Z,4.20
2022-11-23T08:11:01.176Z,3.90
2022-11-23T08:12:01.114Z,4.00
2022-11-23T08:13:01.128Z,3.80
2022-11-23T08:14:01.046Z,4.50
2022-11-23T08:15:01.046Z,4.00
2022-11-23T08:16:01.077Z,4.00
2022-11-23T08:17:01.290Z,4.00
2022-11-23T08:18:01.103Z,4.10
2022-11-23T08:19:01.064Z,4.10
2022-11-23T08:20:01.259Z,3.70
2022-11-23T08:21:01.093Z,3.80
2022-11-23T08:22:00.999Z,3.90
2022-11-23T08:23:00.940Z,3.70
2022-11-23T08:24:01.022Z,3.90
2022-11-23T08:25:00.938Z,3.70
2022-11-23T08:26:01.015Z,4.00
2022-11-23T08:27:01.069Z,4.00
2022-11-23T08:28:00.886Z,3.90
2022-11-23T08:29:00.949Z,4.00
2022-11-23T08:30:00.925Z,3.80
2022-11-23T08:31:00.889Z,4.30
2022-11-23T08:32:00.902Z,4.60
2022-11-23T08:33:00.830Z,3.80
2022-11-23T08:34:03.641Z,3.60
2022-11-23T08:35:00.829Z,3.60
2022-11-23T08:36:00.854Z,3.60
2022-11-23T08:37:00.842Z,4.00
2022-11-23T08:38:00.912Z,3.80
2022-11-23T08:39:00.763Z,3.60
2022-11-23T08:40:00.817Z,3.80
2022-11-23T08:41:00.820Z,3.80
2022-11-23T08:42:00.753Z,3.70
2022-11-23T08:43:00.723Z,3.40
2022-11-23T08:44:00.780Z,4.00
2022-11-23T08:45:00.750Z,3.90
2022-11-23T08:46:05.657Z,3.70
2022-11-23T08:47:00.685Z,3.60
2022-11-23T08:48:00.700Z,3.40
2022-11-23T08:49:00.687Z,3.90
2022-11-23T08:50:00.651Z,3.60
2022-11-23T08:51:00.669Z,3.80
2022-11-23T08:52:00.666Z,3.50
2022-11-23T08:53:00.660Z,3.20
2022-11-23T08:54:00.613Z,3.80
2022-11-23T08:55:00.586Z,3.40
2022-11-23T08:56:00.721Z,3.40
2022-11-23T08:57:00.564Z,3.20
2022-11-23T08:58:00.552Z,3.00
2022-11-23T08:59:00.567Z,3.30
2022-11-23T09:00:00.539Z,3.30
2022-11-23T09:01:00.554Z,2.90
2022-11-23T09:02:00.567Z,3.10
2022-11-23T09:03:00.503Z,3.60
2022-11-23T09:04:00.545Z,3.20
2022-11-23T09:05:00.523Z,3.40
2022-11-23T09:06:00.495Z,3.40
2022-11-23T09:07:00.464Z,3.30
2022-11-23T09:08:00.456Z,3.20
2022-11-23T09:09:00.435Z,3.00
2022-11-23T09:10:00.447Z,2.90
2022-11-23T09:11:00.428Z,3.50
2022-11-23T09:12:00.407Z,3.40
2022-11-23T09:13:00.429Z,3.40
2022-11-23T09:14:00.400Z,3.40
2022-11-23T09:15:00.374Z,3.00
2022-11-23T09:16:00.426Z,3.40
2022-11-23T09:17:00.341Z,3.80
2022-11-23T09:18:00.333Z,3.30
2022-11-23T09:19:00.330Z,3.60
2022-11-23T09:20:00.313Z,3.20
2022-11-23T09:21:00.333Z,3.10
2022-11-23T09:22:00.296Z,3.20
2022-11-23T09:23:00.287Z,3.40
2022-11-23T09:24:00.322Z,3.00
2022-11-23T09:25:00.339Z,3.40
2022-11-23T09:26:00.260Z,2.80
2022-11-23T09:27:00.249Z,2.70
2022-11-23T09:28:00.236Z,2.90
2022-11-23T09:29:00.269Z,2.90
2022-11-23T09:30:00.220Z,2.70
2022-11-23T09:31:00.290Z,2.90
2022-11-23T09:32:00.220Z,2.50
2022-11-23T09:33:00.212Z,2.80
2022-11-23T09:34:00.185Z,3.20
2022-11-23T09:35:00.450Z,2.90
2022-11-23T09:36:00.175Z,2.80
2022-11-23T09:37:00.135Z,3.30
2022-11-23T09:38:00.137Z,2.50
2022-11-23T09:39:00.122Z,3.00
2022-11-23T09:40:00.163Z,2.80
2022-11-23T09:41:00.156Z,2.70
2022-11-23T09:42:00.075Z,2.60
2022-11-23T09:43:00.068Z,2.80
2022-11-23T09:44:00.054Z,3.00
2022-11-23T09:45:00.060Z,2.60
2022-11-23T09:46:00.092Z,2.80
2022-11-23T09:47:00.036Z,3.60
2022-11-23T09:48:00.006Z,2.80
2022-11-23T09:49:00.000Z,3.10
2022-11-23T09:50:00.012Z,3.20
2022-11-23T09:51:00.024Z,3.20
2022-11-23T09:51:59.958Z,2.80
2022-11-23T09:53:00.035Z,2.80
2022-11-23T09:53:59.948Z,2.70
2022-11-23T09:54:59.947Z,2.90
2022-11-23T09:55:59.959Z,3.20
2022-11-23T09:57:01.914Z,2.60
2022-11-23T09:57:59.914Z,2.90
2022-11-23T09:58:59.915Z,2.80
2022-11-23T09:59:59.948Z,2.80
2022-11-23T10:00:59.949Z,3.00
2022-11-23T10:01:59.971Z,3.00
2022-11-23T10:02:59.859Z,2.80
2022-11-23T10:03:59.843Z,2.90
2022-11-23T10:04:59.860Z,3.20
2022-11-23T10:05:59.859Z,2.50
2022-11-23T10:06:59.858Z,2.50
2022-11-23T10:07:59.820Z,2.70
2022-11-23T10:08:59.780Z,2.90
2022-11-23T10:09:59.847Z,2.60
2022-11-23T10:10:59.793Z,2.50
2022-11-23T10:11:59.756Z,2.50
2022-11-23T10:12:59.745Z,2.80
2022-11-23T10:13:59.743Z,3.30
2022-11-23T10:14:59.733Z,2.60
2022-11-23T10:15:59.720Z,2.60
2022-11-23T10:16:59.689Z,2.40
2022-11-23T10:17:59.677Z,2.50
2022-11-23T10:18:59.679Z,2.70
2022-11-23T10:19:59.671Z,2.60
2022-11-23T10:20:59.665Z,2.80
2022-11-23T10:21:59.638Z,2.30
2022-11-23T10:22:59.626Z,2.50
2022-11-23T10:23:59.627Z,2.50
2022-11-23T10:24:59.603Z,2.60
2022-11-23T10:25:59.609Z,2.60
2022-11-23T10:26:59.590Z,2.50
2022-11-23T10:27:59.568Z,2.80
2022-11-23T10:28:59.557Z,2.80
2022-11-23T10:29:59.556Z,2.70
2022-11-23T10:30:59.758Z,3.10
2022-11-23T10:31:59.556Z,3.10
2022-11-23T10:32:59.528Z,3.60
2022-11-23T10:33:59.514Z,3.00
2022-11-23T10:34:59.504Z,2.80
2022-11-23T10:35:59.518Z,2.70
2022-11-23T10:36:59.482Z,2.30
2022-11-23T10:37:59.489Z,2.50
2022-11-23T10:38:59.445Z,2.40
2022-11-23T10:39:59.462Z,2.30
2022-11-23T10:40:59.426Z,2.20
2022-11-23T10:41:59.443Z,2.30
2022-11-23T10:42:59.413Z,2.40
2022-11-23T10:43:59.428Z,2.40
2022-11-23T10:44:59.390Z,2.30
2022-11-23T10:46:00.004Z,2.30
2022-11-23T10:46:59.380Z,2.60
2022-11-23T10:47:59.376Z,2.20
2022-11-23T10:48:59.342Z,2.20
2022-11-23T10:49:59.335Z,2.20
2022-11-23T10:50:59.329Z,2.30
2022-11-23T10:51:59.322Z,2.10
2022-11-23T10:52:59.378Z,2.00
2022-11-23T10:54:03.664Z,2.40
2022-11-23T10:54:59.282Z,2.20
2022-11-23T10:55:59.269Z,2.10
2022-11-23T10:56:59.294Z,2.30
2022-11-23T10:57:59.250Z,2.00
2022-11-23T10:58:59.253Z,2.60
2022-11-23T10:59:59.226Z,3.00
2022-11-23T11:00:59.218Z,2.00
2022-11-23T11:01:59.280Z,2.10
2022-11-23T11:02:59.193Z,2.60
2022-11-23T11:03:59.176Z,1.90
2022-11-23T11:04:59.167Z,2.20
2022-11-23T11:06:14.415Z,2.30
2022-11-23T11:06:59.172Z,2.00
2022-11-23T11:07:59.146Z,2.10
2022-11-23T11:09:02.742Z,2.10
2022-11-23T11:09:59.119Z,2.40
2022-11-23T11:10:59.107Z,1.90
2022-11-23T11:11:59.107Z,2.00
2022-11-23T11:12:59.086Z,2.30
2022-11-23T11:13:59.067Z,2.10
2022-11-23T11:15:05.217Z,1.90
2022-11-23T11:15:59.057Z,1.80
2022-11-23T11:16:59.053Z,1.90
2022-11-23T11:17:59.028Z,2.10
2022-11-23T11:18:59.020Z,1.80
2022-11-23T11:19:59.028Z,2.00
2022-11-23T11:20:58.999Z,2.20
2022-11-23T11:21:59.000Z,2.00
2022-11-23T11:22:58.976Z,2.20
2022-11-23T11:23:58.972Z,2.40
2022-11-23T11:24:58.956Z,2.40
2022-11-23T11:25:58.951Z,2.40
2022-11-23T11:26:58.954Z,2.30
2022-11-23T11:27:58.961Z,2.00
2022-11-23T11:28:58.966Z,2.30
2022-11-23T11:29:58.915Z,2.30
2022-11-23T11:30:58.891Z,2.10
2022-11-23T11:31:58.904Z,1.90
2022-11-23T11:32:58.875Z,2.60
2022-11-23T11:33:58.861Z,2.20
2022-11-23T11:34:58.837Z,2.40
2022-11-23T11:35:58.834Z,2.10
2022-11-23T11:36:58.845Z,2.40
2022-11-23T11:37:58.813Z,2.50
2022-11-23T11:39:17.832Z,2.00
2022-11-23T11:39:58.809Z,2.30
2022-11-23T11:40:58.784Z,2.10
2022-11-23T11:41:58.786Z,2.20
2022-11-23T11:42:58.756Z,2.30
2022-11-23T11:43:58.763Z,2.60
2022-11-23T11:44:58.739Z,1.90
2022-11-23T11:46:27.376Z,2.10
2022-11-23T11:46:58.743Z,2.60
2022-11-23T11:47:58.721Z,2.40
2022-11-23T11:48:58.693Z,2.00
2022-11-23T11:49:58.692Z,2.20
2022-11-23T11:50:58.679Z,2.00
2022-11-23T11:51:58.678Z,2.30
2022-11-23T11:52:58.637Z,2.10
2022-11-23T11:53:58.633Z,2.20
2022-11-23T11:54:58.674Z,2.00
2022-11-23T11:55:58.641Z,1.90
2022-11-23T11:56:58.691Z,2.40
2022-11-23T11:57:58.637Z,2.30
2022-11-23T11:58:58.586Z,1.90
2022-11-23T11:59:58.639Z,2.30
2022-11-23T12:00:58.568Z,2.20
2022-11-23T12:01:58.566Z,2.10
2022-11-23T12:02:58.583Z,1.90
2022-11-23T12:03:58.561Z,2.30
2022-11-23T12:04:58.513Z,2.10
2022-11-23T12:05:58.514Z,2.20
2022-11-23T12:06:58.527Z,2.10
2022-11-23T12:07:58.507Z,1.90
2022-11-23T12:08:58.486Z,2.20
2022-11-23T12:09:58.469Z,2.10
2022-11-23T12:10:58.463Z,2.00
2022-11-23T12:11:58.456Z,2.20
2022-11-23T12:12:58.442Z,2.50
2022-11-23T12:13:58.425Z,2.20
2022-11-23T12:14:58.408Z,1.80
2022-11-23T12:15:58.402Z,2.20
2022-11-23T12:17:17.330Z,2.20
2022-11-23T12:17:58.383Z,2.20
2022-11-23T12:18:58.369Z,2.20
2022-11-23T12:19:58.358Z,2.50
2022-11-23T12:20:58.343Z,2.10
2022-11-23T12:21:58.414Z,1.90
2022-11-23T12:22:58.326Z,2.00
2022-11-23T12:23:58.312Z,2.30
2022-11-23T12:24:58.297Z,1.90
2022-11-23T12:25:58.294Z,1.80
2022-11-23T12:26:58.294Z,2.00
2022-11-23T12:27:58.259Z,1.90
2022-11-23T12:28:58.262Z,2.40
2022-11-23T12:29:58.256Z,2.20
2022-11-23T12:30:58.236Z,2.10
2022-11-23T12:31:58.256Z,1.70
2022-11-23T12:32:58.226Z,2.00
2022-11-23T12:33:58.209Z,2.10
2022-11-23T12:34:58.230Z,2.50
2022-11-23T12:35:58.182Z,2.40
2022-11-23T12:36:58.193Z,2.40
2022-11-23T12:37:58.178Z,2.00
2022-11-23T12:38:58.160Z,2.10
2022-11-23T12:39:58.149Z,2.10
2022-11-23T12:40:58.226Z,1.90
2022-11-23T12:41:58.153Z,2.40
2022-11-23T12:42:58.122Z,1.90
2022-11-23T12:43:58.107Z,2.10
2022-11-23T12:44:58.109Z,2.10
2022-11-23T12:45:58.084Z,2.20
2022-11-23T12:46:58.087Z,2.00
2022-11-23T12:47:58.062Z,2.30
2022-11-23T12:48:58.077Z,2.00
2022-11-23T12:49:58.044Z,2.20
2022-11-23T12:50:58.033Z,1.80
2022-11-23T12:51:58.093Z,1.80
2022-11-23T12:52:58.028Z,1.70
2022-11-23T12:53:58.062Z,2.40
2022-11-23T13:02:09.033Z,2.30
2022-11-23T13:03:10.029Z,1.80
2022-11-23T13:04:11.504Z,2.00
2022-11-23T13:05:10.037Z,2.00
2022-11-23T13:06:09.919Z,1.70
2022-11-23T13:07:28.082Z,1.80
2022-11-23T13:08:11.441Z,1.70
2022-11-23T13:09:11.376Z,1.60
2022-11-23T13:10:12.736Z,2.10
2022-11-23T13:11:10.046Z,1.90
2022-11-23T13:12:10.613Z,2.00
2022-11-23T13:13:15.565Z,1.50
2022-11-23T13:14:10.591Z,1.80
2022-11-23T13:15:10.589Z,2.00
2022-11-23T13:16:11.538Z,1.70
2022-11-23T13:17:09.991Z,1.80
2022-11-23T13:18:10.593Z,1.80